Time;durP1;ratioP1;P1;durP2;ratioP2;P2;SDS_P1;SDS_P2;PMS_P1;PMS_P2;Temp;Humidity;BMP_temperature;BMP_pressure;BME280_temperature;BME280_humidity;BME280_pressure;Samples;Min_cycle;Max_cycle;Signal;HPM_P1;HPM_P2
2022/07/06 00:02:20;;;;;;;;;;;;;;;16.61;100.00;100120.47;5041561;28;19925;-85
2022/07/06 00:04:47;;;;;;;;;;;;;;;16.76;100.00;100114.03;5058281;28;20302;-85
2022/07/06 00:07:14;;;;;;;;;;;;;;;16.40;100.00;100120.94;5076274;28;19931;-85
2022/07/06 00:09:42;;;;;;;;;;;;;;;16.62;100.00;100139.78;5041420;28;19925;-86
2022/07/06 00:12:09;;;;;;;;;;;;;;;16.78;100.00;100136.94;5041215;28;19959;-85
2022/07/06 00:14:37;;;;;;;;;;;;;;;16.64;100.00;100133.69;5041356;28;19928;-85
2022/07/06 00:17:04;;;;;;;;;;;;;;;16.38;100.00;100129.03;5075595;28;19928;-85
2022/07/06 00:19:32;;;;;;;;;;;;;;;16.34;100.00;100139.59;5058001;28;19974;-85
2022/07/06 00:21:59;;;;;;;;;;;;;;;16.24;100.00;100142.22;5025265;28;20274;-86
2022/07/06 00:24:26;;;;;;;;;;;;;;;16.23;100.00;100146.28;5041512;28;19925;-85
2022/07/06 00:26:54;;;;;;;;;;;;;;;16.24;100.00;100147.84;5025245;28;19931;-86
2022/07/06 00:29:21;;;;;;;;;;;;;;;16.15;100.00;100144.84;5024591;28;19925;-85
2022/07/06 00:31:49;;;;;;;;;;;;;;;15.84;100.00;100151.91;5041036;28;19931;-85
2022/07/06 00:34:16;;;;;;;;;;;;;;;15.46;100.00;100147.03;5041224;28;19924;-85
2022/07/06 00:36:43;;;;;;;;;;;;;;;15.63;100.00;100137.47;5041155;28;19925;-85
2022/07/06 00:39:10;;;;;;;;;;;;;;;15.56;100.00;100129.13;5040728;28;19971;-85
2022/07/06 00:41:37;;;;;;;;;;;;;;;15.75;100.00;100126.31;5039706;28;19928;-85
2022/07/06 00:44:07;;;;;;;;;;;;;;;15.58;100.00;100121.88;5057679;28;20437;-85
2022/07/06 00:46:34;;;;;;;;;;;;;;;15.50;100.00;100131.66;5024538;28;19924;-85
2022/07/06 00:49:01;;;;;;;;;;;;;;;15.78;100.00;100133.13;5040606;28;20376;-85
2022/07/06 00:51:30;;;;;;;;;;;;;;;15.62;100.00;100135.84;5040824;28;19924;-85
2022/07/06 00:53:58;;;;;;;;;;;;;;;15.78;100.00;100128.28;5024777;28;19924;-85
2022/07/06 00:56:28;;;;;;;;;;;;;;;16.19;100.00;100133.50;5040406;28;19924;-85
2022/07/06 00:58:55;;;;;;;;;;;;;;;15.82;100.00;100142.31;5057157;28;19925;-85
2022/07/06 01:01:23;;;;;;;;;;;;;;;15.91;100.00;100145.34;5040544;28;19925;-85
2022/07/06 01:03:50;;;;;;;;;;;;;;;16.19;100.00;100139.13;5057092;28;20351;-85
2022/07/06 01:06:17;;;;;;;;;;;;;;;15.86;100.00;100141.00;5057396;28;19929;-85
2022/07/06 01:08:45;;;;;;;;;;;;;;;16.20;100.00;100138.69;5057089;28;19925;-85
2022/07/06 01:11:12;;;;;;;;;;;;;;;16.23;100.00;100140.63;5006241;28;19931;-85
2022/07/06 01:13:40;;;;;;;;;;;;;;;16.39;100.00;100139.88;5057021;28;19987;-85
2022/07/06 01:16:08;;;;;;;;;;;;;;;16.31;100.00;100137.66;5057070;28;19935;-85
2022/07/06 01:18:35;;;;;;;;;;;;;;;16.31;100.00;100135.63;5040294;28;19925;-85
2022/07/06 01:21:10;;;;;;;;;;;;;;;16.14;100.00;100143.25;5040180;28;19961;-85
2022/07/06 01:23:41;;;;;;;;;;;;;;;16.49;100.00;100136.06;5040114;28;20284;-85
2022/07/06 01:26:09;;;;;;;;;;;;;;;16.01;100.00;100128.22;5040246;28;19925;-85
2022/07/06 01:28:37;;;;;;;;;;;;;;;15.84;100.00;100135.00;5056635;28;20384;-85
2022/07/06 01:31:04;;;;;;;;;;;;;;;15.98;100.00;100129.06;5039991;28;20379;-85
2022/07/06 01:33:31;;;;;;;;;;;;;;;16.34;100.00;100122.69;5074477;28;19924;-85
2022/07/06 01:35:58;;;;;;;;;;;;;;;16.46;100.00;100119.19;5056522;28;20406;-85
2022/07/06 01:38:25;;;;;;;;;;;;;;;16.03;100.00;100119.31;5039537;28;19932;-85
2022/07/06 01:40:52;;;;;;;;;;;;;;;15.94;100.00;100111.47;5056639;28;19947;-85
2022/07/06 01:43:19;;;;;;;;;;;;;;;16.35;100.00;100115.78;5074303;28;19925;-84
2022/07/06 01:45:47;;;;;;;;;;;;;;;15.71;100.00;100107.91;5039827;28;19932;-85
2022/07/06 01:48:14;;;;;;;;;;;;;;;15.99;100.00;100108.09;5056359;28;19955;-84
2022/07/06 01:50:41;;;;;;;;;;;;;;;16.15;100.00;100094.06;5074372;28;19984;-84
2022/07/06 01:53:09;;;;;;;;;;;;;;;16.38;100.00;100100.81;5039369;28;19966;-85
2022/07/06 01:55:36;;;;;;;;;;;;;;;16.20;100.00;100099.22;5056461;28;19928;-85
2022/07/06 01:58:03;;;;;;;;;;;;;;;16.16;100.00;100106.94;5039780;28;19928;-85
2022/07/06 02:00:32;;;;;;;;;;;;;;;15.96;100.00;100096.94;5039668;28;19955;-85
2022/07/06 02:02:59;;;;;;;;;;;;;;;15.87;100.00;100093.91;5039484;28;20074;-85
2022/07/06 02:05:26;;;;;;;;;;;;;;;16.04;100.00;100081.44;5056167;28;19924;-84
2022/07/06 02:07:53;;;;;;;;;;;;;;;16.22;100.00;100077.00;5055871;28;19930;-85
2022/07/06 02:10:20;;;;;;;;;;;;;;;15.89;100.00;100061.22;5056406;28;19947;-84
2022/07/06 02:12:49;;;;;;;;;;;;;;;15.99;100.00;100051.72;5056293;28;19929;-84
2022/07/06 02:15:16;;;;;;;;;;;;;;;16.07;100.00;100044.72;5022899;28;19931;-83
2022/07/06 02:17:43;;;;;;;;;;;;;;;15.83;100.00;100031.97;5056074;28;20367;-84
2022/07/06 02:20:10;;;;;;;;;;;;;;;15.90;100.00;100037.44;5039265;28;19924;-83
2022/07/06 02:22:37;;;;;;;;;;;;;;;15.67;100.00;100034.75;5022889;28;19928;-85
2022/07/06 02:25:06;;;;;;;;;;;;;;;15.80;100.00;100038.47;5056006;28;19931;-84
2022/07/06 02:27:34;;;;;;;;;;;;;;;15.79;100.00;100044.53;5039265;28;20425;-85
2022/07/06 02:30:05;;;;;;;;;;;;;;;15.64;100.00;100024.34;5056293;28;19924;-85
2022/07/06 02:32:33;;;;;;;;;;;;;;;15.86;100.00;100041.56;5055596;28;19931;-85
2022/07/06 02:35:00;;;;;;;;;;;;;;;15.89;100.00;100027.41;5039125;28;19925;-85
2022/07/06 02:37:27;;;;;;;;;;;;;;;16.01;100.00;100026.72;5055674;28;20011;-84
2022/07/06 02:39:54;;;;;;;;;;;;;;;15.92;100.00;100017.28;5039058;28;19958;-85
2022/07/06 02:42:21;;;;;;;;;;;;;;;15.95;100.00;100033.31;5022671;28;19924;-85
2022/07/06 02:44:48;;;;;;;;;;;;;;;16.06;100.00;100031.06;5055687;28;20031;-85
2022/07/06 02:47:15;;;;;;;;;;;;;;;16.13;100.00;100040.13;5040174;28;19970;-85
2022/07/06 02:49:42;;;;;;;;;;;;;;;16.05;100.00;100041.53;5039089;28;19925;-85
2022/07/06 02:52:10;;;;;;;;;;;;;;;15.89;100.00;100029.41;5039290;28;19932;-85
2022/07/06 02:54:37;;;;;;;;;;;;;;;16.07;100.00;100035.44;5055805;28;19930;-84
2022/07/06 02:57:04;;;;;;;;;;;;;;;16.03;100.00;100043.19;5039008;28;19931;-84
2022/07/06 02:59:31;;;;;;;;;;;;;;;16.17;100.00;100029.59;5038989;28;19925;-85
2022/07/06 03:01:58;;;;;;;;;;;;;;;16.09;100.00;100033.81;5038967;28;19929;-84
2022/07/06 03:04:25;;;;;;;;;;;;;;;15.96;100.00;100052.59;5040042;28;19972;-84
2022/07/06 03:06:52;;;;;;;;;;;;;;;16.11;100.00;100053.88;5059380;28;19924;-84
2022/07/06 03:09:19;;;;;;;;;;;;;;;16.11;100.00;100048.22;5059892;28;19931;-84
2022/07/06 03:11:48;;;;;;;;;;;;;;;15.96;100.00;100046.97;5059428;28;19924;-84
2022/07/06 03:14:15;;;;;;;;;;;;;;;16.03;100.00;100041.19;5042680;28;19925;-84
2022/07/06 03:16:46;;;;;;;;;;;;;;;16.08;100.00;100054.75;5027006;28;20070;-84
2022/07/06 03:19:17;;;;;;;;;;;;;;;16.02;100.00;100056.50;5059203;28;20413;-84
2022/07/06 03:21:45;;;;;;;;;;;;;;;16.24;100.00;100066.06;5042213;28;19925;-84
2022/07/06 03:24:12;;;;;;;;;;;;;;;16.27;100.00;100065.19;5059343;28;20023;-84
2022/07/06 03:26:39;;;;;;;;;;;;;;;16.25;100.00;100069.69;5059292;28;19928;-84
2022/07/06 03:29:06;;;;;;;;;;;;;;;15.90;100.00;100065.63;5059011;28;19924;-84
2022/07/06 03:31:33;;;;;;;;;;;;;;;16.07;100.00;100058.81;5059056;28;20387;-85
2022/07/06 03:34:00;;;;;;;;;;;;;;;15.80;100.00;100061.03;5058675;28;19931;-85
2022/07/06 03:36:29;;;;;;;;;;;;;;;15.85;100.00;100065.34;5042181;28;20023;-85
2022/07/06 03:38:58;;;;;;;;;;;;;;;16.23;100.00;100067.31;5042068;28;19925;-84
2022/07/06 03:41:25;;;;;;;;;;;;;;;16.12;100.00;100072.41;5042000;28;19925;-84
2022/07/06 03:43:52;;;;;;;;;;;;;;;16.13;100.00;100071.16;5058622;28;20011;-83
2022/07/06 03:46:20;;;;;;;;;;;;;;;16.11;100.00;100059.50;5043065;28;19931;-84
2022/07/06 03:48:47;;;;;;;;;;;;;;;16.09;100.00;100084.56;5041933;28;19925;-84
2022/07/06 03:51:14;;;;;;;;;;;;;;;15.94;100.00;100074.81;5042228;28;19924;-84
2022/07/06 03:53:41;;;;;;;;;;;;;;;16.08;100.00;100087.81;5059263;28;19924;-85
2022/07/06 03:58:58;;;;;;;;;;;;;;;16.08;100.00;100099.84;5041626;28;20468;-85
2022/07/06 04:01:26;;;;;;;;;;;;;;;16.14;100.00;100102.97;5042067;28;19980;-84
2022/07/06 04:03:53;;;;;;;;;;;;;;;15.92;100.00;100107.47;5041475;28;19931;-85
2022/07/06 04:06:24;;;;;;;;;;;;;;;15.95;100.00;100118.66;5042634;28;19924;-84
2022/07/06 04:11:04;;;;;;;;;;;;;;;15.84;100.00;100109.63;5091490;28;19913;-84
2022/07/06 04:13:32;;;;;;;;;;;;;;;16.07;100.00;100109.56;5073647;28;19925;-85
2022/07/06 04:15:59;;;;;;;;;;;;;;;15.88;100.00;100104.75;5056962;28;20054;-84
2022/07/06 04:18:27;;;;;;;;;;;;;;;16.13;100.00;100101.38;5073080;28;19924;-84
2022/07/06 04:20:57;;;;;;;;;;;;;;;16.20;100.00;100093.56;5090503;28;19931;-85
2022/07/06 04:23:25;;;;;;;;;;;;;;;16.27;100.00;100101.06;5090037;28;19933;-84
2022/07/06 04:25:54;;;;;;;;;;;;;;;16.19;100.00;100100.41;5090012;28;19932;-85
2022/07/06 04:28:22;;;;;;;;;;;;;;;16.14;100.00;100084.03;5106699;28;20062;-84
2022/07/06 04:30:50;;;;;;;;;;;;;;;16.36;100.00;100086.38;5089977;28;19924;-84
2022/07/06 04:33:21;;;;;;;;;;;;;;;16.23;100.00;100097.53;5106116;28;20383;-84
2022/07/06 04:35:49;;;;;;;;;;;;;;;16.13;100.00;100090.88;5072728;28;19924;-84
2022/07/06 04:38:17;;;;;;;;;;;;;;;15.91;100.00;100084.13;5089879;28;19931;-84
2022/07/06 04:40:46;;;;;;;;;;;;;;;16.03;100.00;100080.66;5056650;28;19935;-84
2022/07/06 04:43:16;;;;;;;;;;;;;;;15.95;100.00;100079.22;5072844;28;19928;-84
2022/07/06 04:45:44;;;;;;;;;;;;;;;15.95;100.00;100079.22;5089360;28;19964;-84
2022/07/06 04:48:11;;;;;;;;;;;;;;;16.07;100.00;100075.72;5072753;28;19930;-85
2022/07/06 04:50:38;;;;;;;;;;;;;;;15.95;100.00;100067.13;5106370;28;19924;-85
2022/07/06 04:53:09;;;;;;;;;;;;;;;16.14;100.00;100083.25;5056691;28;19924;-89
2022/07/06 04:55:37;;;;;;;;;;;;;;;16.12;100.00;100080.84;5089440;28;20020;-87
2022/07/06 04:58:04;;;;;;;;;;;;;;;16.24;100.00;100068.91;5107058;28;19924;-87
2022/07/06 05:00:32;;;;;;;;;;;;;;;16.04;100.00;100079.41;5072734;28;20442;-82
2022/07/06 05:02:59;;;;;;;;;;;;;;;15.92;100.00;100091.34;5072417;28;19925;-86
2022/07/06 05:05:27;;;;;;;;;;;;;;;15.89;100.00;100086.59;5089245;28;19924;-86
2022/07/06 05:07:54;;;;;;;;;;;;;;;16.15;100.00;100091.25;5089132;28;19931;-86
2022/07/06 05:10:22;;;;;;;;;;;;;;;16.01;100.00;100066.19;5088811;28;19924;-85
2022/07/06 05:12:53;;;;;;;;;;;;;;;16.07;100.00;100089.81;5106069;28;20419;-87
2022/07/06 05:15:21;;;;;;;;;;;;;;;16.03;100.00;100083.47;5071924;28;20398;-88
2022/07/06 05:17:49;;;;;;;;;;;;;;;16.10;100.00;100091.75;5105850;28;20371;-87
2022/07/06 05:20:17;;;;;;;;;;;;;;;15.98;100.00;100089.63;5070924;28;19924;-87
2022/07/06 05:22:48;;;;;;;;;;;;;;;16.09;100.00;100095.81;5059390;28;20433;-87
2022/07/06 05:25:20;;;;;;;;;;;;;;;16.04;100.00;100089.88;5075849;28;19931;-87
2022/07/06 05:27:47;;;;;;;;;;;;;;;15.87;100.00;100094.69;5075048;28;19924;-87
2022/07/06 05:30:15;;;;;;;;;;;;;;;16.03;100.00;100106.03;5074728;28;20264;-87
2022/07/06 05:32:43;;;;;;;;;;;;;;;16.27;100.00;100105.94;5074931;28;19925;-87
2022/07/06 05:35:11;;;;;;;;;;;;;;;16.13;100.00;100102.16;5092134;28;19970;-88
2022/07/06 05:38:00;;;;;;;;;;;;;;;16.50;100.00;100109.41;5078701;28;19924;-87
2022/07/06 05:40:27;;;;;;;;;;;;;;;16.57;100.00;100120.53;5041793;28;19990;-88
2022/07/06 05:42:55;;;;;;;;;;;;;;;16.06;100.00;100113.63;5109285;28;20268;-87
2022/07/06 05:45:22;;;;;;;;;;;;;;;16.25;100.00;100114.81;5075069;28;19925;-88
2022/07/06 05:50:38;;;;;;;;;;;;;;;16.30;100.00;100133.25;5058207;28;19924;-87
2022/07/06 05:53:06;;;;;;;;;;;;;;;16.34;100.00;100148.06;5092104;28;19932;-87
2022/07/06 05:55:37;;;;;;;;;;;;;;;16.11;100.00;100135.63;5075334;28;19925;-86
2022/07/06 05:58:06;;;;;;;;;;;;;;;16.20;100.00;100137.88;5074806;28;20019;-87
2022/07/06 06:00:34;;;;;;;;;;;;;;;16.15;100.00;100127.91;5074964;28;19948;-87
2022/07/06 06:03:11;;;;;;;;;;;;;;;16.21;100.00;100125.38;5074821;28;19925;-87
2022/07/06 06:05:40;;;;;;;;;;;;;;;16.57;100.00;100116.94;5058198;28;19931;-87
2022/07/06 06:08:09;;;;;;;;;;;;;;;16.39;100.00;100105.25;5091072;28;20008;-87
2022/07/06 06:10:39;;;;;;;;;;;;;;;16.40;100.00;100106.81;5074195;28;19924;-87
2022/07/06 06:13:09;;;;;;;;;;;;;;;16.30;100.00;100124.78;5042619;28;19985;-87
2022/07/06 06:15:38;;;;;;;;;;;;;;;16.08;100.00;100122.41;5075032;28;19924;-88
2022/07/06 06:18:06;;;;;;;;;;;;;;;16.11;100.00;100120.75;5041633;28;20383;-88
2022/07/06 06:20:33;;;;;;;;;;;;;;;16.17;100.00;100114.19;5057628;28;19932;-88
2022/07/06 06:23:00;;;;;;;;;;;;;;;16.08;100.00;100113.94;5057730;28;19924;-88
2022/07/06 06:25:29;;;;;;;;;;;;;;;16.07;100.00;100109.56;5057733;28;20019;-88
2022/07/06 06:27:56;;;;;;;;;;;;;;;16.00;100.00;100115.34;5091344;28;20330;-87
2022/07/06 06:30:24;;;;;;;;;;;;;;;15.85;100.00;100114.06;5057289;28;19932;-87
2022/07/06 06:32:52;;;;;;;;;;;;;;;16.06;100.00;100107.97;5056812;28;19939;-88
2022/07/06 06:35:19;;;;;;;;;;;;;;;16.07;100.00;100112.38;5107494;28;20295;-87
2022/07/06 06:37:46;;;;;;;;;;;;;;;15.84;100.00;100112.44;5107684;28;19966;-87
2022/07/06 06:40:13;;;;;;;;;;;;;;;15.99;100.00;100119.38;5090926;28;19974;-87
2022/07/06 06:42:40;;;;;;;;;;;;;;;15.84;100.00;100120.13;5090631;28;19925;-89
2022/07/06 06:45:11;;;;;;;;;;;;;;;15.79;100.00;100121.44;5074245;28;19925;-87
2022/07/06 06:47:39;;;;;;;;;;;;;;;15.72;100.00;100126.41;5057654;28;19931;-87
2022/07/06 06:50:06;;;;;;;;;;;;;;;15.85;100.00;100114.06;5057203;28;20019;-87
2022/07/06 06:52:33;;;;;;;;;;;;;;;15.77;100.00;100126.69;5075040;28;19924;-87
2022/07/06 06:55:05;;;;;;;;;;;;;;;16.09;100.00;100134.50;5090207;28;19990;-88
2022/07/06 06:57:33;;;;;;;;;;;;;;;16.08;100.00;100133.69;5073423;28;19924;-88
2022/07/06 07:00:00;;;;;;;;;;;;;;;16.14;100.00;100140.44;5073576;28;19924;-88
2022/07/06 07:02:27;;;;;;;;;;;;;;;16.24;100.00;100136.56;5074760;28;20384;-87
2022/07/06 07:04:54;;;;;;;;;;;;;;;16.27;100.00;100123.63;5090391;28;19968;-87
2022/07/06 07:07:21;;;;;;;;;;;;;;;16.40;100.00;100132.22;5056802;28;19952;-87
2022/07/06 07:09:48;;;;;;;;;;;;;;;16.25;100.00;100114.81;5073114;28;19924;-87
2022/07/06 07:12:16;;;;;;;;;;;;;;;16.27;100.00;100107.50;5056688;28;19946;-87
2022/07/06 07:14:44;;;;;;;;;;;;;;;16.32;100.00;100108.22;5090016;28;19931;-86
2022/07/06 07:17:12;;;;;;;;;;;;;;;16.12;100.00;100094.16;5074497;28;20375;-87
2022/07/06 07:19:39;;;;;;;;;;;;;;;16.34;100.00;100098.09;5056804;28;19932;-87
2022/07/06 07:22:06;;;;;;;;;;;;;;;16.51;100.00;100099.72;5056726;28;19931;-87
2022/07/06 07:24:33;;;;;;;;;;;;;;;16.46;100.00;100107.91;5073223;28;19924;-87
2022/07/06 07:27:00;;;;;;;;;;;;;;;16.36;100.00;100104.06;5106442;28;19924;-88
2022/07/06 07:29:27;;;;;;;;;;;;;;;16.45;100.00;100114.81;5106519;28;20015;-87
2022/07/06 07:31:54;;;;;;;;;;;;;;;16.23;100.00;100118.06;5089645;28;20057;-87
2022/07/06 07:34:22;;;;;;;;;;;;;;;16.27;100.00;100118.78;5056125;28;19925;-87
2022/07/06 07:36:50;;;;;;;;;;;;;;;16.56;100.00;100118.16;5072884;28;20295;-87
2022/07/06 07:39:17;;;;;;;;;;;;;;;16.40;100.00;100126.56;5056758;28;19925;-86
2022/07/06 07:41:45;;;;;;;;;;;;;;;16.59;100.00;100131.38;5073103;28;19978;-87
2022/07/06 07:44:12;;;;;;;;;;;;;;;16.68;100.00;100131.56;5072451;28;19925;-87
2022/07/06 07:46:40;;;;;;;;;;;;;;;16.79;100.00;100126.47;5074337;28;19925;-86
2022/07/06 07:49:07;;;;;;;;;;;;;;;16.58;100.00;100149.56;5072813;28;20012;-87
2022/07/06 07:51:35;;;;;;;;;;;;;;;16.34;100.00;100139.59;5056340;28;20011;-86
2022/07/06 07:54:02;;;;;;;;;;;;;;;16.72;100.00;100137.94;5072786;28;19925;-87
2022/07/06 07:56:29;;;;;;;;;;;;;;;16.62;100.00;100130.50;5089157;28;19956;-87
2022/07/06 07:58:56;;;;;;;;;;;;;;;16.62;100.00;100127.69;5074007;28;20011;-87
2022/07/06 08:01:28;;;;;;;;;;;;;;;16.66;100.00;100134.06;5089582;28;20035;-87
2022/07/06 08:03:55;;;;;;;;;;;;;;;16.68;100.00;100125.91;5072504;28;19924;-87
2022/07/06 08:06:22;;;;;;;;;;;;;;;16.89;100.00;100116.97;5055758;28;19925;-87
2022/07/06 08:08:49;;;;;;;;;;;;;;;16.46;100.00;100122.81;5072279;28;19924;-87
2022/07/06 08:11:17;;;;;;;;;;;;;;;16.73;100.00;100131.84;5053782;28;19924;-87
2022/07/06 08:13:45;;;;;;;;;;;;;;;16.55;100.00;100134.31;5085426;28;19924;-87
2022/07/06 08:16:12;;;;;;;;;;;;;;;16.55;100.00;100139.16;5055788;28;19924;-88
2022/07/06 08:18:39;;;;;;;;;;;;;;;16.05;100.00;100131.75;5072571;28;19978;-85
2022/07/06 08:21:07;;;;;;;;;;;;;;;16.31;100.00;100134.81;5072529;28;19924;-87
2022/07/06 08:23:51;;;;;;;;;;;;;;;16.85;100.00;100138.81;5072906;28;19997;-87
2022/07/06 08:26:19;;;;;;;;;;;;;;;16.95;100.00;100134.97;5038964;28;19935;-87
2022/07/06 08:28:46;;;;;;;;;;;;;;;17.37;100.00;100133.88;5039052;28;19932;-87
2022/07/06 08:31:14;;;;;;;;;;;;;;;17.29;100.00;100124.78;5072313;28;19925;-87
2022/07/06 08:34:01;;;;;;;;;;;;;;;17.18;100.00;100127.09;5073646;28;19924;-87
2022/07/06 08:36:28;;;;;;;;;;;;;;;16.95;100.00;100130.09;5072320;28;20101;-87
2022/07/06 08:38:55;;;;;;;;;;;;;;;17.37;100.00;100128.22;5088833;28;20067;-86
2022/07/06 08:41:23;;;;;;;;;;;;;;;17.37;100.00;100111.25;5072234;28;19925;-87
2022/07/06 08:43:51;;;;;;;;;;;;;;;17.74;100.00;100128.41;5106022;28;19924;-87
2022/07/06 08:46:19;;;;;;;;;;;;;;;17.71;100.00;100120.81;5072607;28;19928;-87
2022/07/06 08:48:47;;;;;;;;;;;;;;;17.98;100.00;100137.41;5072262;28;19925;-87
2022/07/06 08:51:14;;;;;;;;;;;;;;;18.19;100.00;100133.94;5072574;28;20332;-87
2022/07/06 08:53:42;;;;;;;;;;;;;;;18.45;100.00;100134.84;5055051;28;19954;-86
2022/07/06 08:56:09;;;;;;;;;;;;;;;18.24;100.00;100141.91;5039936;28;20028;-87
2022/07/06 08:58:40;;;;;;;;;;;;;;;17.82;100.00;100126.97;5059316;28;19929;-87
2022/07/06 09:01:11;;;;;;;;;;;;;;;17.96;100.00;100132.19;5059419;28;20395;-86
2022/07/06 09:03:41;;;;;;;;;;;;;;;17.79;100.00;100127.06;5075885;28;19947;-86
2022/07/06 09:06:09;;;;;;;;;;;;;;;17.95;100.00;100135.47;5076224;28;19928;-87
2022/07/06 09:08:36;;;;;;;;;;;;;;;17.81;100.00;100118.94;5076633;28;19924;-87
2022/07/06 09:11:04;;;;;;;;;;;;;;;18.02;100.00;100121.94;5075871;28;19931;-87
2022/07/06 09:13:31;;;;;;;;;;;;;;;18.06;100.00;100110.50;5075908;28;19947;-87
2022/07/06 09:16:14;;;;;;;;;;;;;;;17.48;100.00;100108.94;5042379;28;19924;-86
2022/07/06 09:19:02;;;;;;;;;;;;;;;17.85;100.00;100120.44;5058730;28;19925;-86
2022/07/06 09:21:31;;;;;;;;;;;;;;;18.02;100.00;100118.31;5075546;28;19928;-87
2022/07/06 09:24:02;;;;;;;;;;;;;;;17.87;100.00;100119.97;5058929;28;20556;-86
2022/07/06 09:26:29;;;;;;;;;;;;;;;18.38;100.00;100130.19;5058858;28;19935;-87
2022/07/06 09:28:57;;;;;;;;;;;;;;;17.69;100.00;100111.22;5076719;28;20015;-86
2022/07/06 09:31:24;;;;;;;;;;;;;;;17.95;100.00;100113.66;5076464;28;19990;-86
2022/07/06 09:33:59;;;;;;;;;;;;;;;17.96;100.00;100115.25;5092145;28;19925;-85
2022/07/06 09:36:38;;;;;;;;;;;;;;;17.68;100.00;100116.06;5075549;28;19932;-86
2022/07/06 09:39:29;;;;;;;;;;;;;;;17.91;100.00;100118.63;5077886;28;20021;-83
2022/07/06 09:42:00;;;;;;;;;;;;;;;17.62;100.00;100098.06;5057813;28;19935;-83
2022/07/06 09:44:36;;;;;;;;;;;;;;;17.82;100.00;100104.34;5074458;28;19925;-83
2022/07/06 09:47:14;;;;;;;;;;;;;;;17.70;100.00;100112.78;5089719;28;19931;-83
2022/07/06 09:49:47;;;;;;;;;;;;;;;17.68;100.00;100112.44;5074801;28;19931;-84
2022/07/06 09:52:14;;;;;;;;;;;;;;;17.52;100.00;100112.50;5074788;28;19954;-84
2022/07/06 09:54:48;;;;;;;;;;;;;;;17.27;100.00;100106.66;5075220;28;20295;-83
2022/07/06 09:57:22;;;;;;;;;;;;;;;17.56;100.00;100108.34;5076214;28;19924;-83
2022/07/06 09:59:55;;;;;;;;;;;;;;;17.46;100.00;100114.28;5074830;28;20017;-83
2022/07/06 10:02:26;;;;;;;;;;;;;;;17.13;100.00;100109.88;5074843;28;19925;-83
2022/07/06 10:04:57;;;;;;;;;;;;;;;17.48;100.00;100106.13;5058122;28;19929;-83
2022/07/06 10:07:25;;;;;;;;;;;;;;;17.49;100.00;100102.84;5075881;28;19974;-83
2022/07/06 10:09:52;;;;;;;;;;;;;;;17.53;100.00;100100.75;5074293;28;19925;-83
2022/07/06 10:12:24;;;;;;;;;;;;;;;17.66;100.00;100101.56;5040284;28;20315;-83
2022/07/06 10:14:51;;;;;;;;;;;;;;;17.43;100.00;100089.72;5058037;28;19987;-86
2022/07/06 10:17:18;;;;;;;;;;;;;;;17.71;100.00;100094.56;5074536;28;19964;-87
2022/07/06 10:19:46;;;;;;;;;;;;;;;17.93;100.00;100087.09;5074735;28;19948;-85
2022/07/06 10:22:14;;;;;;;;;;;;;;;18.00;100.00;100086.88;5074627;28;19924;-85
2022/07/06 10:24:43;;;;;;;;;;;;;;;17.93;100.00;100101.22;5057791;28;19939;-85
2022/07/06 10:27:12;;;;;;;;;;;;;;;17.98;100.00;100088.56;5057964;28;19994;-85
2022/07/06 10:29:38;;;;;;;;;;;;;;;18.33;100.00;100093.13;5074457;28;20353;-85
2022/07/06 10:32:08;;;;;;;;;;;;;;;18.26;100.00;100096.19;5057874;28;19925;-84
2022/07/06 10:34:38;;;;;;;;;;;;;;;18.32;100.00;100085.88;5075240;28;19931;-88
2022/07/06 10:37:05;;;;;;;;;;;;;;;18.48;100.00;100092.25;5056654;28;20273;-88
2022/07/06 10:42:40;;;;;;;;;;;;;;;19.04;100.00;100104.56;5074588;28;19928;-88
2022/07/06 10:46:14;;;;;;;;;;;;;;;18.62;100.00;100094.66;5056403;28;19936;-87
2022/07/06 10:48:41;;;;;;;;;;;;;;;18.73;100.00;100082.97;5045958;28;19925;-87
2022/07/06 10:51:10;;;;;;;;;;;;;;;18.68;100.00;100075.03;5072578;28;19924;-87
2022/07/06 10:53:39;;;;;;;;;;;;;;;18.78;100.00;100074.69;5073084;28;19931;-88
2022/07/06 10:56:08;;;;;;;;;;;;;;;18.65;100.00;100071.09;5074149;28;20023;-88
2022/07/06 10:58:35;;;;;;;;;;;;;;;18.63;100.00;100070.75;5073014;28;19925;-88
2022/07/06 11:01:03;;;;;;;;;;;;;;;18.66;100.00;100074.72;5056312;28;19970;-88
2022/07/06 11:03:42;;;;;;;;;;;;;;;17.88;100.00;100070.66;5072556;28;19925;-88
2022/07/06 11:06:12;;;;;;;;;;;;;;;18.48;100.00;100083.78;5056213;28;19932;-88
2022/07/06 11:08:45;;;;;;;;;;;;;;;18.45;100.00;100081.84;5072717;28;19924;-87
2022/07/06 11:11:19;;;;;;;;;;;;;;;18.56;100.00;100079.47;5055613;28;20414;-88
2022/07/06 11:13:51;;;;;;;;;;;;;;;19.16;100.00;100060.47;5072559;28;19975;-89
2022/07/06 11:16:19;;;;;;;;;;;;;;;19.39;100.00;100069.34;5072636;28;20031;-89
2022/07/06 11:18:48;;;;;;;;;;;;;;;19.29;100.00;100067.72;5055002;28;19931;-88
2022/07/06 11:21:16;;;;;;;;;;;;;;;19.66;100.00;100066.75;5073525;28;19924;-87
2022/07/06 11:23:45;;;;;;;;;;;;;;;19.96;100.00;100053.88;5039393;28;20442;-88
2022/07/06 11:26:12;;;;;;;;;;;;;;;19.95;100.00;100043.00;5055986;28;19932;-88
2022/07/06 11:28:39;;;;;;;;;;;;;;;19.66;100.00;100026.25;5038892;28;19932;-89
2022/07/06 11:31:06;;;;;;;;;;;;;;;19.64;100.00;100035.22;5055359;28;20299;-88
2022/07/06 11:33:34;;;;;;;;;;;;;;;18.57;100.00;100058.41;5055159;28;20066;-88
2022/07/06 11:36:11;;;;;;;;;;;;;;;18.87;100.00;100048.53;5055786;28;20243;-89
2022/07/06 11:38:39;;;;;;;;;;;;;;;18.83;100.00;100047.84;5072126;28;19963;-88
2022/07/06 11:41:06;;;;;;;;;;;;;;;18.48;100.00;100049.81;5057492;28;19932;-89
2022/07/06 11:43:33;;;;;;;;;;;;;;;18.37;100.00;100063.53;5039754;28;20371;-88
2022/07/06 11:46:01;;;;;;;;;;;;;;;18.63;100.00;100058.66;5056375;28;19931;-89
2022/07/06 11:48:28;;;;;;;;;;;;;;;18.62;100.00;100055.00;5072943;28;20330;-89
2022/07/06 11:51:00;;;;;;;;;;;;;;;18.64;100.00;100046.88;5056242;28;19933;-88
2022/07/06 11:53:27;;;;;;;;;;;;;;;18.55;100.00;100055.25;5072913;28;20300;-88
2022/07/06 11:55:55;;;;;;;;;;;;;;;18.48;100.00;100046.97;5073669;28;19930;-89
2022/07/06 11:58:23;;;;;;;;;;;;;;;18.43;100.00;100067.38;5056373;28;20283;-89
2022/07/06 12:01:03;;;;;;;;;;;;;;;18.33;100.00;100067.66;5039737;28;20298;-87
2022/07/06 12:03:32;;;;;;;;;;;;;;;18.34;100.00;100074.91;5056062;28;19928;-90
2022/07/06 12:06:00;;;;;;;;;;;;;;;17.90;100.00;100071.03;5056234;28;19924;-90
2022/07/06 12:08:30;;;;;;;;;;;;;;;18.21;100.00;100068.44;5039963;28;20417;-89
2022/07/06 12:10:57;;;;;;;;;;;;;;;18.08;100.00;100062.00;5072741;28;19978;-89
2022/07/06 12:13:24;;;;;;;;;;;;;;;18.21;100.00;100069.25;5072786;28;20359;-88
2022/07/06 12:15:52;;;;;;;;;;;;;;;18.54;100.00;100067.03;5039411;28;19924;-87
2022/07/06 12:18:19;;;;;;;;;;;;;;;18.77;100.00;100064.63;5055636;28;20437;-89
2022/07/06 12:20:46;;;;;;;;;;;;;;;18.57;100.00;100068.97;5056096;28;19959;-90
2022/07/06 12:23:13;;;;;;;;;;;;;;;18.71;100.00;100063.59;5056073;28;19993;-89
2022/07/06 12:25:41;;;;;;;;;;;;;;;18.75;100.00;100046.50;5055890;28;19936;-90
2022/07/06 12:28:21;;;;;;;;;;;;;;;19.00;100.00;100041.59;5071931;28;20045;-90
2022/07/06 12:30:48;;;;;;;;;;;;;;;19.10;100.00;100048.91;5055948;28;20055;-90
2022/07/06 12:33:18;;;;;;;;;;;;;;;18.96;100.00;100049.41;5059604;28;19931;-90
2022/07/06 12:35:45;;;;;;;;;;;;;;;18.82;100.00;100037.78;5076163;28;19925;-90
2022/07/06 12:38:12;;;;;;;;;;;;;;;19.35;100.00;100034.69;5076124;28;20450;-89
2022/07/06 12:40:39;;;;;;;;;;;;;;;19.07;100.00;100018.66;5076488;28;19933;-89
2022/07/06 12:43:07;;;;;;;;;;;;;;;19.16;100.00;100032.13;5076031;28;19930;-88
2022/07/06 12:45:34;;;;;;;;;;;;;;;18.77;100.00;100027.81;5059126;28;19970;-90
2022/07/06 12:48:05;;;;;;;;;;;;;;;18.63;100.00;100030.34;5042904;28;19924;-89